sensor_id;sensor_type;location;lat;lon;timestamp;temperature;humidity
12426;DHT22;6277;49.824;9.562;2023-12-04T00:01:46;-1.70;74.50
12426;DHT22;6277;49.824;9.562;2023-12-04T00:04:12;-1.70;74.50
12426;DHT22;6277;49.824;9.562;2023-12-04T00:06:38;-1.70;74.50
12426;DHT22;6277;49.824;9.562;2023-12-04T00:09:03;-1.60;74.50
12426;DHT22;6277;49.824;9.562;2023-12-04T00:11:29;-1.60;74.50
12426;DHT22;6277;49.824;9.562;2023-12-04T00:13:54;-1.60;74.60
12426;DHT22;6277;49.824;9.562;2023-12-04T00:16:20;-1.60;74.60
12426;DHT22;6277;49.824;9.562;2023-12-04T00:18:45;-1.60;74.60
12426;DHT22;6277;49.824;9.562;2023-12-04T00:21:12;-1.60;74.60
12426;DHT22;6277;49.824;9.562;2023-12-04T00:23:38;-1.60;74.60
12426;DHT22;6277;49.824;9.562;2023-12-04T00:26:04;-1.60;74.60
12426;DHT22;6277;49.824;9.562;2023-12-04T00:28:29;-1.60;74.60
12426;DHT22;6277;49.824;9.562;2023-12-04T00:30:55;-1.60;74.60
12426;DHT22;6277;49.824;9.562;2023-12-04T00:33:20;-1.50;74.70
12426;DHT22;6277;49.824;9.562;2023-12-04T00:35:46;-1.50;74.60
12426;DHT22;6277;49.824;9.562;2023-12-04T00:38:11;-1.60;74.60
12426;DHT22;6277;49.824;9.562;2023-12-04T00:40:37;-1.60;74.60
12426;DHT22;6277;49.824;9.562;2023-12-04T00:43:02;-1.60;74.60
12426;DHT22;6277;49.824;9.562;2023-12-04T00:45:28;-1.60;74.60
12426;DHT22;6277;49.824;9.562;2023-12-04T00:47:53;-1.60;74.60
12426;DHT22;6277;49.824;9.562;2023-12-04T00:50:19;-1.60;74.60
12426;DHT22;6277;49.824;9.562;2023-12-04T00:52:44;-1.60;74.60
12426;DHT22;6277;49.824;9.562;2023-12-04T00:55:10;-1.60;74.60
12426;DHT22;6277;49.824;9.562;2023-12-04T00:57:35;-1.50;74.60
12426;DHT22;6277;49.824;9.562;2023-12-04T01:00:01;-1.50;74.60
12426;DHT22;6277;49.824;9.562;2023-12-04T01:02:26;-1.50;74.60
12426;DHT22;6277;49.824;9.562;2023-12-04T01:04:52;-1.50;74.50
12426;DHT22;6277;49.824;9.562;2023-12-04T01:07:17;-1.50;74.50
12426;DHT22;6277;49.824;9.562;2023-12-04T01:09:43;-1.50;74.40
12426;DHT22;6277;49.824;9.562;2023-12-04T01:12:08;-1.60;74.30
12426;DHT22;6277;49.824;9.562;2023-12-04T01:14:35;-1.50;74.40
12426;DHT22;6277;49.824;9.562;2023-12-04T01:17:03;-1.60;74.40
12426;DHT22;6277;49.824;9.562;2023-12-04T01:19:29;-1.60;74.30
12426;DHT22;6277;49.824;9.562;2023-12-04T01:21:55;-1.60;74.40
12426;DHT22;6277;49.824;9.562;2023-12-04T01:24:20;-1.60;74.30
12426;DHT22;6277;49.824;9.562;2023-12-04T01:26:46;-1.60;74.30
12426;DHT22;6277;49.824;9.562;2023-12-04T01:29:12;-1.60;74.20
12426;DHT22;6277;49.824;9.562;2023-12-04T01:31:37;-1.70;74.80
12426;DHT22;6277;49.824;9.562;2023-12-04T01:34:03;-1.70;74.10
12426;DHT22;6277;49.824;9.562;2023-12-04T01:36:28;-1.70;74.20
12426;DHT22;6277;49.824;9.562;2023-12-04T01:38:54;-1.70;74.20
12426;DHT22;6277;49.824;9.562;2023-12-04T01:41:19;-1.70;74.20
12426;DHT22;6277;49.824;9.562;2023-12-04T01:43:45;-1.70;74.30
12426;DHT22;6277;49.824;9.562;2023-12-04T01:46:11;-1.80;74.20
12426;DHT22;6277;49.824;9.562;2023-12-04T01:48:38;-1.80;74.30
12426;DHT22;6277;49.824;9.562;2023-12-04T01:51:06;-1.80;74.40
12426;DHT22;6277;49.824;9.562;2023-12-04T01:53:33;-1.80;74.40
12426;DHT22;6277;49.824;9.562;2023-12-04T01:55:59;-1.90;74.40
12426;DHT22;6277;49.824;9.562;2023-12-04T01:58:25;-1.90;74.40
12426;DHT22;6277;49.824;9.562;2023-12-04T02:00:51;-1.90;74.50
12426;DHT22;6277;49.824;9.562;2023-12-04T02:03:16;-1.90;74.50
12426;DHT22;6277;49.824;9.562;2023-12-04T02:05:44;-1.90;74.50
12426;DHT22;6277;49.824;9.562;2023-12-04T02:08:10;-1.90;74.50
12426;DHT22;6277;49.824;9.562;2023-12-04T02:10:36;-1.90;74.60
12426;DHT22;6277;49.824;9.562;2023-12-04T02:13:02;-1.90;74.60
12426;DHT22;6277;49.824;9.562;2023-12-04T02:15:28;-1.90;74.70
12426;DHT22;6277;49.824;9.562;2023-12-04T02:17:53;-1.90;74.70
12426;DHT22;6277;49.824;9.562;2023-12-04T02:20:19;-1.90;74.70
12426;DHT22;6277;49.824;9.562;2023-12-04T02:22:45;-1.90;74.80
12426;DHT22;6277;49.824;9.562;2023-12-04T02:25:11;-1.90;74.80
12426;DHT22;6277;49.824;9.562;2023-12-04T02:27:38;-1.90;74.90
12426;DHT22;6277;49.824;9.562;2023-12-04T02:30:08;-1.90;74.90
12426;DHT22;6277;49.824;9.562;2023-12-04T02:32:42;-1.90;74.90
12426;DHT22;6277;49.824;9.562;2023-12-04T02:35:10;-1.90;74.90
12426;DHT22;6277;49.824;9.562;2023-12-04T02:37:36;-1.80;75.00
12426;DHT22;6277;49.824;9.562;2023-12-04T02:40:02;-1.80;74.90
12426;DHT22;6277;49.824;9.562;2023-12-04T02:42:28;-1.80;75.60
12426;DHT22;6277;49.824;9.562;2023-12-04T02:44:54;-1.80;75.00
12426;DHT22;6277;49.824;9.562;2023-12-04T02:47:20;-1.80;74.90
12426;DHT22;6277;49.824;9.562;2023-12-04T02:49:45;-1.70;75.00
12426;DHT22;6277;49.824;9.562;2023-12-04T02:52:11;-1.70;75.00
12426;DHT22;6277;49.824;9.562;2023-12-04T02:54:36;-1.70;75.00
12426;DHT22;6277;49.824;9.562;2023-12-04T02:57:02;-1.70;75.00
12426;DHT22;6277;49.824;9.562;2023-12-04T02:59:28;-1.60;75.00
12426;DHT22;6277;49.824;9.562;2023-12-04T03:01:53;-1.60;75.00
12426;DHT22;6277;49.824;9.562;2023-12-04T03:04:19;-1.60;75.00
12426;DHT22;6277;49.824;9.562;2023-12-04T03:06:45;-1.60;75.00
12426;DHT22;6277;49.824;9.562;2023-12-04T03:09:11;-1.60;75.00
12426;DHT22;6277;49.824;9.562;2023-12-04T03:11:39;-1.50;75.10
12426;DHT22;6277;49.824;9.562;2023-12-04T03:14:05;-1.50;75.10
12426;DHT22;6277;49.824;9.562;2023-12-04T03:16:31;-1.50;75.10
12426;DHT22;6277;49.824;9.562;2023-12-04T03:18:57;-1.50;75.10
12426;DHT22;6277;49.824;9.562;2023-12-04T03:21:22;-1.40;75.20
12426;DHT22;6277;49.824;9.562;2023-12-04T03:23:48;-1.40;75.20
12426;DHT22;6277;49.824;9.562;2023-12-04T03:26:13;-1.40;75.20
12426;DHT22;6277;49.824;9.562;2023-12-04T03:28:39;-1.30;75.30
12426;DHT22;6277;49.824;9.562;2023-12-04T03:31:07;-1.30;75.20
12426;DHT22;6277;49.824;9.562;2023-12-04T03:33:33;-1.30;75.30
12426;DHT22;6277;49.824;9.562;2023-12-04T03:35:59;-1.20;75.30
12426;DHT22;6277;49.824;9.562;2023-12-04T03:38:25;-1.20;75.30
12426;DHT22;6277;49.824;9.562;2023-12-04T03:40:50;-1.20;75.20
12426;DHT22;6277;49.824;9.562;2023-12-04T03:43:16;-1.10;75.30
12426;DHT22;6277;49.824;9.562;2023-12-04T03:45:42;-1.10;75.30
12426;DHT22;6277;49.824;9.562;2023-12-04T03:48:07;-1.00;75.30
12426;DHT22;6277;49.824;9.562;2023-12-04T03:50:33;-1.00;75.30
12426;DHT22;6277;49.824;9.562;2023-12-04T03:52:58;-1.00;75.20
12426;DHT22;6277;49.824;9.562;2023-12-04T03:55:24;-1.00;75.20
12426;DHT22;6277;49.824;9.562;2023-12-04T03:57:49;-0.90;75.20
12426;DHT22;6277;49.824;9.562;2023-12-04T04:00:15;-0.90;75.20
12426;DHT22;6277;49.824;9.562;2023-12-04T04:02:43;-0.90;75.10
12426;DHT22;6277;49.824;9.562;2023-12-04T04:05:08;-0.90;75.10
12426;DHT22;6277;49.824;9.562;2023-12-04T04:07:34;-0.90;75.10
12426;DHT22;6277;49.824;9.562;2023-12-04T04:10:00;-0.80;75.10
12426;DHT22;6277;49.824;9.562;2023-12-04T04:12:26;-0.80;75.00
12426;DHT22;6277;49.824;9.562;2023-12-04T04:14:52;-0.80;75.00
12426;DHT22;6277;49.824;9.562;2023-12-04T04:17:18;-0.80;75.00
12426;DHT22;6277;49.824;9.562;2023-12-04T04:19:43;-0.80;75.00
12426;DHT22;6277;49.824;9.562;2023-12-04T04:22:09;-0.80;75.00
12426;DHT22;6277;49.824;9.562;2023-12-04T04:24:34;-0.80;74.90
12426;DHT22;6277;49.824;9.562;2023-12-04T04:27:00;-0.80;75.00
12426;DHT22;6277;49.824;9.562;2023-12-04T04:29:25;-0.80;74.90
12426;DHT22;6277;49.824;9.562;2023-12-04T04:31:51;-0.80;74.80
12426;DHT22;6277;49.824;9.562;2023-12-04T04:34:16;-0.80;74.80
12426;DHT22;6277;49.824;9.562;2023-12-04T04:36:45;-0.90;74.70
12426;DHT22;6277;49.824;9.562;2023-12-04T04:39:12;-0.90;74.70
12426;DHT22;6277;49.824;9.562;2023-12-04T04:41:38;-0.90;74.70
12426;DHT22;6277;49.824;9.562;2023-12-04T04:44:05;-0.90;74.70
12426;DHT22;6277;49.824;9.562;2023-12-04T04:46:30;-0.90;74.70
12426;DHT22;6277;49.824;9.562;2023-12-04T04:48:56;-0.90;74.70
12426;DHT22;6277;49.824;9.562;2023-12-04T04:51:22;-0.90;74.70
12426;DHT22;6277;49.824;9.562;2023-12-04T04:53:48;-0.90;74.70
12426;DHT22;6277;49.824;9.562;2023-12-04T04:56:14;-0.90;74.70
12426;DHT22;6277;49.824;9.562;2023-12-04T04:58:40;-0.90;74.70
12426;DHT22;6277;49.824;9.562;2023-12-04T05:01:06;-0.90;74.70
12426;DHT22;6277;49.824;9.562;2023-12-04T05:03:31;-0.90;74.80
12426;DHT22;6277;49.824;9.562;2023-12-04T05:05:57;-0.90;74.80
12426;DHT22;6277;49.824;9.562;2023-12-04T05:08:23;-0.90;74.90
12426;DHT22;6277;49.824;9.562;2023-12-04T05:10:48;-0.90;74.90
12426;DHT22;6277;49.824;9.562;2023-12-04T05:13:14;-0.90;74.90
12426;DHT22;6277;49.824;9.562;2023-12-04T05:15:39;-0.90;74.90
12426;DHT22;6277;49.824;9.562;2023-12-04T05:18:05;-0.90;74.90
12426;DHT22;6277;49.824;9.562;2023-12-04T05:20:30;-0.90;74.90
12426;DHT22;6277;49.824;9.562;2023-12-04T05:22:57;-0.90;74.90
12426;DHT22;6277;49.824;9.562;2023-12-04T05:25:22;-0.80;74.90
12426;DHT22;6277;49.824;9.562;2023-12-04T05:27:48;-0.80;74.90
12426;DHT22;6277;49.824;9.562;2023-12-04T05:30:14;-0.80;74.90
12426;DHT22;6277;49.824;9.562;2023-12-04T05:32:39;-0.80;74.90
12426;DHT22;6277;49.824;9.562;2023-12-04T05:35:05;-0.80;74.90
12426;DHT22;6277;49.824;9.562;2023-12-04T05:37:31;-0.80;74.80
12426;DHT22;6277;49.824;9.562;2023-12-04T05:39:57;-0.80;74.80
12426;DHT22;6277;49.824;9.562;2023-12-04T05:42:23;-0.80;74.80
12426;DHT22;6277;49.824;9.562;2023-12-04T05:44:49;-0.80;74.80
12426;DHT22;6277;49.824;9.562;2023-12-04T05:47:14;-0.80;74.80
12426;DHT22;6277;49.824;9.562;2023-12-04T05:49:40;-0.80;74.80
12426;DHT22;6277;49.824;9.562;2023-12-04T05:52:06;-0.80;74.80
12426;DHT22;6277;49.824;9.562;2023-12-04T05:54:31;-0.80;74.80
12426;DHT22;6277;49.824;9.562;2023-12-04T05:56:57;-0.80;74.80
12426;DHT22;6277;49.824;9.562;2023-12-04T05:59:23;-0.80;74.80
12426;DHT22;6277;49.824;9.562;2023-12-04T06:01:49;-0.70;74.90
12426;DHT22;6277;49.824;9.562;2023-12-04T06:04:14;-0.70;74.80
12426;DHT22;6277;49.824;9.562;2023-12-04T06:06:40;-0.80;74.80
12426;DHT22;6277;49.824;9.562;2023-12-04T06:09:05;-0.70;74.70
12426;DHT22;6277;49.824;9.562;2023-12-04T06:11:31;-0.80;74.70
12426;DHT22;6277;49.824;9.562;2023-12-04T06:13:57;-0.70;74.70
12426;DHT22;6277;49.824;9.562;2023-12-04T06:16:22;-0.80;74.70
12426;DHT22;6277;49.824;9.562;2023-12-04T06:18:48;-0.80;74.60
12426;DHT22;6277;49.824;9.562;2023-12-04T06:21:13;-0.80;74.60
12426;DHT22;6277;49.824;9.562;2023-12-04T06:23:39;-0.80;74.60
12426;DHT22;6277;49.824;9.562;2023-12-04T06:26:06;-0.80;74.60
12426;DHT22;6277;49.824;9.562;2023-12-04T06:28:31;-0.80;74.60
12426;DHT22;6277;49.824;9.562;2023-12-04T06:30:58;-0.80;74.60
12426;DHT22;6277;49.824;9.562;2023-12-04T06:33:24;-0.80;74.50
12426;DHT22;6277;49.824;9.562;2023-12-04T06:35:50;-0.80;74.50
12426;DHT22;6277;49.824;9.562;2023-12-04T06:38:16;-0.80;74.50
12426;DHT22;6277;49.824;9.562;2023-12-04T06:40:43;-0.80;74.50
12426;DHT22;6277;49.824;9.562;2023-12-04T06:43:09;-0.80;74.50
12426;DHT22;6277;49.824;9.562;2023-12-04T06:45:35;-0.80;74.40
12426;DHT22;6277;49.824;9.562;2023-12-04T06:48:00;-0.90;74.40
12426;DHT22;6277;49.824;9.562;2023-12-04T06:50:26;-0.90;74.50
12426;DHT22;6277;49.824;9.562;2023-12-04T06:52:52;-0.90;74.50
12426;DHT22;6277;49.824;9.562;2023-12-04T06:55:18;-0.90;74.40
12426;DHT22;6277;49.824;9.562;2023-12-04T06:57:43;-0.90;74.50
12426;DHT22;6277;49.824;9.562;2023-12-04T07:00:09;-0.90;74.50
12426;DHT22;6277;49.824;9.562;2023-12-04T07:02:39;-0.90;74.40
12426;DHT22;6277;49.824;9.562;2023-12-04T07:05:05;-0.90;74.50
12426;DHT22;6277;49.824;9.562;2023-12-04T07:07:31;-0.90;74.50
12426;DHT22;6277;49.824;9.562;2023-12-04T07:09:57;-0.90;75.10
12426;DHT22;6277;49.824;9.562;2023-12-04T07:12:22;-0.90;74.50
12426;DHT22;6277;49.824;9.562;2023-12-04T07:14:48;-0.90;74.50
12426;DHT22;6277;49.824;9.562;2023-12-04T07:17:13;-0.90;74.60
12426;DHT22;6277;49.824;9.562;2023-12-04T07:19:41;-0.90;74.60
12426;DHT22;6277;49.824;9.562;2023-12-04T07:22:07;-0.90;74.70
12426;DHT22;6277;49.824;9.562;2023-12-04T07:24:32;-0.90;74.70
12426;DHT22;6277;49.824;9.562;2023-12-04T07:26:58;-0.90;74.70
12426;DHT22;6277;49.824;9.562;2023-12-04T07:29:24;-0.90;74.70
12426;DHT22;6277;49.824;9.562;2023-12-04T07:31:49;-0.90;74.70
12426;DHT22;6277;49.824;9.562;2023-12-04T07:34:15;-0.90;74.80
12426;DHT22;6277;49.824;9.562;2023-12-04T07:36:41;-0.80;74.90
12426;DHT22;6277;49.824;9.562;2023-12-04T07:39:06;-0.80;75.00
12426;DHT22;6277;49.824;9.562;2023-12-04T07:41:32;-0.70;75.10
12426;DHT22;6277;49.824;9.562;2023-12-04T07:43:58;-0.70;75.10
12426;DHT22;6277;49.824;9.562;2023-12-04T07:46:23;-0.70;75.10
12426;DHT22;6277;49.824;9.562;2023-12-04T07:48:49;-0.60;75.30
12426;DHT22;6277;49.824;9.562;2023-12-04T07:51:14;-0.50;75.30
12426;DHT22;6277;49.824;9.562;2023-12-04T07:53:40;-0.50;75.30
12426;DHT22;6277;49.824;9.562;2023-12-04T07:56:06;-0.50;75.30
12426;DHT22;6277;49.824;9.562;2023-12-04T07:58:31;-0.40;75.40
12426;DHT22;6277;49.824;9.562;2023-12-04T08:00:57;-0.30;75.40
12426;DHT22;6277;49.824;9.562;2023-12-04T08:03:23;-0.30;75.40
12426;DHT22;6277;49.824;9.562;2023-12-04T08:05:53;-0.20;75.50
12426;DHT22;6277;49.824;9.562;2023-12-04T08:08:18;-0.10;75.50
12426;DHT22;6277;49.824;9.562;2023-12-04T08:10:44;0.00;75.50
12426;DHT22;6277;49.824;9.562;2023-12-04T08:13:10;0.00;75.50
12426;DHT22;6277;49.824;9.562;2023-12-04T08:15:35;0.10;75.50
12426;DHT22;6277;49.824;9.562;2023-12-04T08:18:01;0.20;75.50
12426;DHT22;6277;49.824;9.562;2023-12-04T08:20:26;0.20;75.50
12426;DHT22;6277;49.824;9.562;2023-12-04T08:22:52;0.30;75.50
12426;DHT22;6277;49.824;9.562;2023-12-04T08:25:18;0.30;75.40
12426;DHT22;6277;49.824;9.562;2023-12-04T08:27:43;0.40;75.30
12426;DHT22;6277;49.824;9.562;2023-12-04T08:30:09;0.40;75.30
12426;DHT22;6277;49.824;9.562;2023-12-04T08:32:35;0.50;75.40
12426;DHT22;6277;49.824;9.562;2023-12-04T08:35:00;0.50;75.40
12426;DHT22;6277;49.824;9.562;2023-12-04T08:37:26;0.60;75.40
12426;DHT22;6277;49.824;9.562;2023-12-04T08:39:51;0.60;75.30
12426;DHT22;6277;49.824;9.562;2023-12-04T08:42:17;0.70;75.40
12426;DHT22;6277;49.824;9.562;2023-12-04T08:44:43;0.80;75.50
12426;DHT22;6277;49.824;9.562;2023-12-04T08:47:10;0.80;75.40
12426;DHT22;6277;49.824;9.562;2023-12-04T08:49:37;0.90;75.40
12426;DHT22;6277;49.824;9.562;2023-12-04T08:52:09;1.00;75.50
12426;DHT22;6277;49.824;9.562;2023-12-04T08:54:35;1.00;75.40
12426;DHT22;6277;49.824;9.562;2023-12-04T08:57:00;1.10;75.40
12426;DHT22;6277;49.824;9.562;2023-12-04T08:59:26;1.10;75.40
12426;DHT22;6277;49.824;9.562;2023-12-04T09:01:52;1.20;75.30
12426;DHT22;6277;49.824;9.562;2023-12-04T09:04:17;1.30;75.30
12426;DHT22;6277;49.824;9.562;2023-12-04T09:06:43;1.30;75.40
12426;DHT22;6277;49.824;9.562;2023-12-04T09:09:08;1.40;75.30
12426;DHT22;6277;49.824;9.562;2023-12-04T09:11:34;1.40;75.30
12426;DHT22;6277;49.824;9.562;2023-12-04T09:13:59;1.50;75.20
12426;DHT22;6277;49.824;9.562;2023-12-04T09:16:25;1.60;75.30
12426;DHT22;6277;49.824;9.562;2023-12-04T09:18:50;1.60;75.10
12426;DHT22;6277;49.824;9.562;2023-12-04T09:21:17;1.70;75.00
12426;DHT22;6277;49.824;9.562;2023-12-04T09:23:42;1.70;75.00
12426;DHT22;6277;49.824;9.562;2023-12-04T09:26:08;1.70;74.90
12426;DHT22;6277;49.824;9.562;2023-12-04T09:28:35;1.70;74.80
12426;DHT22;6277;49.824;9.562;2023-12-04T09:31:01;1.80;74.90
12426;DHT22;6277;49.824;9.562;2023-12-04T09:33:27;1.80;75.50
12426;DHT22;6277;49.824;9.562;2023-12-04T09:35:53;1.80;74.80
12426;DHT22;6277;49.824;9.562;2023-12-04T09:38:18;1.90;75.00
12426;DHT22;6277;49.824;9.562;2023-12-04T09:40:44;2.00;75.00
12426;DHT22;6277;49.824;9.562;2023-12-04T09:43:09;2.00;75.00
12426;DHT22;6277;49.824;9.562;2023-12-04T09:45:36;2.00;74.90
12426;DHT22;6277;49.824;9.562;2023-12-04T09:48:03;2.10;75.00
12426;DHT22;6277;49.824;9.562;2023-12-04T09:50:28;2.20;75.10
12426;DHT22;6277;49.824;9.562;2023-12-04T09:52:55;2.20;75.10
12426;DHT22;6277;49.824;9.562;2023-12-04T09:55:21;2.30;75.20
12426;DHT22;6277;49.824;9.562;2023-12-04T09:57:47;2.40;75.20
12426;DHT22;6277;49.824;9.562;2023-12-04T10:00:15;2.50;75.20
12426;DHT22;6277;49.824;9.562;2023-12-04T10:02:41;2.60;75.20
12426;DHT22;6277;49.824;9.562;2023-12-04T10:05:07;2.70;75.10
12426;DHT22;6277;49.824;9.562;2023-12-04T10:07:33;2.80;75.30
12426;DHT22;6277;49.824;9.562;2023-12-04T10:09:59;2.80;74.70
12426;DHT22;6277;49.824;9.562;2023-12-04T10:12:25;2.90;74.70
12426;DHT22;6277;49.824;9.562;2023-12-04T10:15:10;3.00;74.60
12426;DHT22;6277;49.824;9.562;2023-12-04T10:17:41;3.00;74.00
12426;DHT22;6277;49.824;9.562;2023-12-04T10:22:51;3.00;74.10
12426;DHT22;6277;49.824;9.562;2023-12-04T10:25:18;3.10;74.20
12426;DHT22;6277;49.824;9.562;2023-12-04T10:27:45;3.10;74.10
12426;DHT22;6277;49.824;9.562;2023-12-04T10:30:26;3.10;74.00
12426;DHT22;6277;49.824;9.562;2023-12-04T10:32:56;3.10;73.80
12426;DHT22;6277;49.824;9.562;2023-12-04T10:35:28;3.10;74.00
12426;DHT22;6277;49.824;9.562;2023-12-04T10:37:56;3.10;74.20
12426;DHT22;6277;49.824;9.562;2023-12-04T10:40:31;3.20;74.20
12426;DHT22;6277;49.824;9.562;2023-12-04T10:43:17;3.20;73.90
12426;DHT22;6277;49.824;9.562;2023-12-04T10:45:45;3.30;73.70
12426;DHT22;6277;49.824;9.562;2023-12-04T10:48:12;3.30;74.10
12426;DHT22;6277;49.824;9.562;2023-12-04T10:50:40;3.40;74.10
12426;DHT22;6277;49.824;9.562;2023-12-04T10:53:13;3.40;74.00
12426;DHT22;6277;49.824;9.562;2023-12-04T10:55:40;3.40;73.90
12426;DHT22;6277;49.824;9.562;2023-12-04T10:58:10;3.40;73.80
12426;DHT22;6277;49.824;9.562;2023-12-04T11:00:44;3.40;73.70
12426;DHT22;6277;49.824;9.562;2023-12-04T11:03:14;3.40;73.40
12426;DHT22;6277;49.824;9.562;2023-12-04T11:05:41;3.50;73.60
12426;DHT22;6277;49.824;9.562;2023-12-04T11:08:09;3.50;73.70
12426;DHT22;6277;49.824;9.562;2023-12-04T11:10:41;3.50;73.60
12426;DHT22;6277;49.824;9.562;2023-12-04T11:13:16;3.50;73.50
12426;DHT22;6277;49.824;9.562;2023-12-04T11:15:45;3.60;73.50
12426;DHT22;6277;49.824;9.562;2023-12-04T11:18:15;3.50;73.30
12426;DHT22;6277;49.824;9.562;2023-12-04T11:20:48;3.60;73.50
12426;DHT22;6277;49.824;9.562;2023-12-04T11:23:16;3.60;73.40
12426;DHT22;6277;49.824;9.562;2023-12-04T11:25:43;3.60;73.50
12426;DHT22;6277;49.824;9.562;2023-12-04T11:28:10;3.60;73.60
12426;DHT22;6277;49.824;9.562;2023-12-04T11:30:37;3.70;73.60
12426;DHT22;6277;49.824;9.562;2023-12-04T11:33:05;3.70;73.70
12426;DHT22;6277;49.824;9.562;2023-12-04T11:35:30;3.80;73.70
12426;DHT22;6277;49.824;9.562;2023-12-04T11:37:56;3.80;73.80
12426;DHT22;6277;49.824;9.562;2023-12-04T11:40:22;3.90;74.00
12426;DHT22;6277;49.824;9.562;2023-12-04T11:42:48;4.00;73.90
12426;DHT22;6277;49.824;9.562;2023-12-04T11:45:20;4.10;73.90
12426;DHT22;6277;49.824;9.562;2023-12-04T11:47:55;4.10;73.50
12426;DHT22;6277;49.824;9.562;2023-12-04T11:50:25;4.20;73.30
12426;DHT22;6277;49.824;9.562;2023-12-04T11:52:51;4.30;73.80
12426;DHT22;6277;49.824;9.562;2023-12-04T11:55:21;4.30;73.70
12426;DHT22;6277;49.824;9.562;2023-12-04T11:57:49;4.40;73.50
12426;DHT22;6277;49.824;9.562;2023-12-04T12:00:19;4.40;73.60
12426;DHT22;6277;49.824;9.562;2023-12-04T12:02:48;4.50;73.30
12426;DHT22;6277;49.824;9.562;2023-12-04T12:05:14;4.50;73.30
12426;DHT22;6277;49.824;9.562;2023-12-04T12:07:40;4.60;73.40
12426;DHT22;6277;49.824;9.562;2023-12-04T12:10:06;4.60;73.10
12426;DHT22;6277;49.824;9.562;2023-12-04T12:12:32;4.60;73.10
12426;DHT22;6277;49.824;9.562;2023-12-04T12:14:59;4.70;73.00
12426;DHT22;6277;49.824;9.562;2023-12-04T12:17:24;4.70;73.00
12426;DHT22;6277;49.824;9.562;2023-12-04T12:19:50;4.70;73.00
12426;DHT22;6277;49.824;9.562;2023-12-04T12:22:16;4.80;73.00
12426;DHT22;6277;49.824;9.562;2023-12-04T12:24:42;4.80;73.00
12426;DHT22;6277;49.824;9.562;2023-12-04T12:27:07;4.80;72.90
12426;DHT22;6277;49.824;9.562;2023-12-04T12:29:33;4.80;72.80
12426;DHT22;6277;49.824;9.562;2023-12-04T12:31:58;4.90;72.80
12426;DHT22;6277;49.824;9.562;2023-12-04T12:34:24;4.90;72.70
12426;DHT22;6277;49.824;9.562;2023-12-04T12:36:49;4.90;72.60
12426;DHT22;6277;49.824;9.562;2023-12-04T12:39:15;4.90;72.40
12426;DHT22;6277;49.824;9.562;2023-12-04T12:41:47;4.90;72.30
12426;DHT22;6277;49.824;9.562;2023-12-04T12:44:14;4.90;71.90
12426;DHT22;6277;49.824;9.562;2023-12-04T12:46:47;4.90;72.30
12426;DHT22;6277;49.824;9.562;2023-12-04T12:49:17;4.90;72.00
12426;DHT22;6277;49.824;9.562;2023-12-04T12:51:42;4.90;72.30
12426;DHT22;6277;49.824;9.562;2023-12-04T12:54:08;4.90;72.30
12426;DHT22;6277;49.824;9.562;2023-12-04T12:56:33;4.90;72.20
12426;DHT22;6277;49.824;9.562;2023-12-04T12:58:59;4.90;72.10
12426;DHT22;6277;49.824;9.562;2023-12-04T13:01:30;4.90;72.00
12426;DHT22;6277;49.824;9.562;2023-12-04T13:03:56;4.90;71.80
12426;DHT22;6277;49.824;9.562;2023-12-04T13:06:22;4.80;72.00
12426;DHT22;6277;49.824;9.562;2023-12-04T13:08:48;4.80;72.10
12426;DHT22;6277;49.824;9.562;2023-12-04T13:11:13;4.80;72.00
12426;DHT22;6277;49.824;9.562;2023-12-04T13:13:39;4.80;72.00
12426;DHT22;6277;49.824;9.562;2023-12-04T13:16:05;4.70;71.80
12426;DHT22;6277;49.824;9.562;2023-12-04T13:18:31;4.70;71.80
12426;DHT22;6277;49.824;9.562;2023-12-04T13:21:00;4.60;72.00
12426;DHT22;6277;49.824;9.562;2023-12-04T13:23:26;4.50;72.10
12426;DHT22;6277;49.824;9.562;2023-12-04T13:25:52;4.50;72.20
12426;DHT22;6277;49.824;9.562;2023-12-04T13:28:20;4.50;72.50
12426;DHT22;6277;49.824;9.562;2023-12-04T13:30:45;4.50;72.60
12426;DHT22;6277;49.824;9.562;2023-12-04T13:33:11;4.50;72.70
12426;DHT22;6277;49.824;9.562;2023-12-04T13:35:36;4.50;72.60
12426;DHT22;6277;49.824;9.562;2023-12-04T13:38:02;4.50;72.60
12426;DHT22;6277;49.824;9.562;2023-12-04T13:40:27;4.50;72.50
12426;DHT22;6277;49.824;9.562;2023-12-04T13:42:57;4.40;72.40
12426;DHT22;6277;49.824;9.562;2023-12-04T13:45:42;4.40;72.40
12426;DHT22;6277;49.824;9.562;2023-12-04T13:48:07;4.30;72.30
12426;DHT22;6277;49.824;9.562;2023-12-04T13:50:33;4.30;72.20
12426;DHT22;6277;49.824;9.562;2023-12-04T13:52:58;4.20;72.20
12426;DHT22;6277;49.824;9.562;2023-12-04T13:55:25;4.10;72.10
12426;DHT22;6277;49.824;9.562;2023-12-04T13:58:26;4.10;72.20
12426;DHT22;6277;49.824;9.562;2023-12-04T14:01:08;4.00;72.20
12426;DHT22;6277;49.824;9.562;2023-12-04T14:03:43;3.90;72.30
12426;DHT22;6277;49.824;9.562;2023-12-04T14:06:09;3.90;72.30
12426;DHT22;6277;49.824;9.562;2023-12-04T14:08:35;3.80;72.30
12426;DHT22;6277;49.824;9.562;2023-12-04T14:11:04;3.80;72.40
12426;DHT22;6277;49.824;9.562;2023-12-04T14:13:32;3.80;72.50
12426;DHT22;6277;49.824;9.562;2023-12-04T14:15:58;3.70;72.50
12426;DHT22;6277;49.824;9.562;2023-12-04T14:18:23;3.70;72.60
12426;DHT22;6277;49.824;9.562;2023-12-04T14:20:49;3.70;72.60
12426;DHT22;6277;49.824;9.562;2023-12-04T14:23:14;3.60;72.60
12426;DHT22;6277;49.824;9.562;2023-12-04T14:25:41;3.60;72.70
12426;DHT22;6277;49.824;9.562;2023-12-04T14:28:07;3.60;72.80
12426;DHT22;6277;49.824;9.562;2023-12-04T14:30:33;3.60;72.80
12426;DHT22;6277;49.824;9.562;2023-12-04T14:32:58;3.60;72.80
12426;DHT22;6277;49.824;9.562;2023-12-04T14:35:24;3.50;72.90
12426;DHT22;6277;49.824;9.562;2023-12-04T14:37:49;3.50;72.90
12426;DHT22;6277;49.824;9.562;2023-12-04T14:40:16;3.50;72.90
12426;DHT22;6277;49.824;9.562;2023-12-04T14:42:42;3.50;73.10
12426;DHT22;6277;49.824;9.562;2023-12-04T14:45:08;3.50;73.10
12426;DHT22;6277;49.824;9.562;2023-12-04T14:47:34;3.40;73.00
12426;DHT22;6277;49.824;9.562;2023-12-04T14:50:00;3.40;73.10
12426;DHT22;6277;49.824;9.562;2023-12-04T14:52:26;3.40;73.10
12426;DHT22;6277;49.824;9.562;2023-12-04T14:54:54;3.40;73.00
12426;DHT22;6277;49.824;9.562;2023-12-04T14:57:34;3.40;73.00
12426;DHT22;6277;49.824;9.562;2023-12-04T15:00:07;3.30;73.00
12426;DHT22;6277;49.824;9.562;2023-12-04T15:02:53;3.30;73.00
12426;DHT22;6277;49.824;9.562;2023-12-04T15:05:37;3.20;72.90
12426;DHT22;6277;49.824;9.562;2023-12-04T15:08:26;3.20;73.00
12426;DHT22;6277;49.824;9.562;2023-12-04T15:11:11;3.20;73.00
12426;DHT22;6277;49.824;9.562;2023-12-04T15:14:05;3.10;73.10
12426;DHT22;6277;49.824;9.562;2023-12-04T15:16:49;3.00;73.00
12426;DHT22;6277;49.824;9.562;2023-12-04T15:19:20;3.00;73.00
12426;DHT22;6277;49.824;9.562;2023-12-04T15:22:02;2.90;73.10
12426;DHT22;6277;49.824;9.562;2023-12-04T15:24:29;2.90;73.20
12426;DHT22;6277;49.824;9.562;2023-12-04T15:26:54;2.80;73.20
12426;DHT22;6277;49.824;9.562;2023-12-04T15:29:20;2.80;73.20
12426;DHT22;6277;49.824;9.562;2023-12-04T15:31:48;2.80;73.30
12426;DHT22;6277;49.824;9.562;2023-12-04T15:34:14;2.80;73.40
12426;DHT22;6277;49.824;9.562;2023-12-04T15:36:40;2.80;73.50
12426;DHT22;6277;49.824;9.562;2023-12-04T15:39:05;2.80;73.60
12426;DHT22;6277;49.824;9.562;2023-12-04T15:41:31;2.80;73.60
12426;DHT22;6277;49.824;9.562;2023-12-04T15:43:56;2.70;73.50
12426;DHT22;6277;49.824;9.562;2023-12-04T15:46:22;2.70;73.60
12426;DHT22;6277;49.824;9.562;2023-12-04T15:48:48;2.70;73.60
12426;DHT22;6277;49.824;9.562;2023-12-04T15:51:14;2.70;73.60
12426;DHT22;6277;49.824;9.562;2023-12-04T15:53:40;2.70;73.60
12426;DHT22;6277;49.824;9.562;2023-12-04T15:56:06;2.60;73.60